sensor_id;sensor_type;location;lat;lon;timestamp;temperature;humidity
8896;DHT22;4484;48.928;10.066;2023-02-28T00:00:37;-3.90;99.90
8896;DHT22;4484;48.928;10.066;2023-02-28T00:03:04;-3.90;99.90
8896;DHT22;4484;48.928;10.066;2023-02-28T00:05:32;-3.80;99.90
8896;DHT22;4484;48.928;10.066;2023-02-28T00:07:59;-3.90;99.90
8896;DHT22;4484;48.928;10.066;2023-02-28T00:10:29;-3.80;99.90
8896;DHT22;4484;48.928;10.066;2023-02-28T00:13:03;-3.80;99.90
8896;DHT22;4484;48.928;10.066;2023-02-28T00:15:32;-3.80;99.90
8896;DHT22;4484;48.928;10.066;2023-02-28T00:17:59;-3.80;99.90
8896;DHT22;4484;48.928;10.066;2023-02-28T00:20:26;-3.80;99.90
8896;DHT22;4484;48.928;10.066;2023-02-28T00:22:54;-3.80;99.90
8896;DHT22;4484;48.928;10.066;2023-02-28T00:25:23;-3.80;99.90
8896;DHT22;4484;48.928;10.066;2023-02-28T00:27:50;-3.80;99.90
8896;DHT22;4484;48.928;10.066;2023-02-28T00:30:20;-3.80;99.90
8896;DHT22;4484;48.928;10.066;2023-02-28T00:32:48;-3.80;99.90
8896;DHT22;4484;48.928;10.066;2023-02-28T00:35:15;-3.80;99.90
8896;DHT22;4484;48.928;10.066;2023-02-28T00:37:42;-3.80;99.90
8896;DHT22;4484;48.928;10.066;2023-02-28T00:40:10;-3.70;99.90
8896;DHT22;4484;48.928;10.066;2023-02-28T00:42:38;-3.70;99.90
8896;DHT22;4484;48.928;10.066;2023-02-28T00:45:07;-3.70;99.90
8896;DHT22;4484;48.928;10.066;2023-02-28T00:47:37;-3.70;99.90
8896;DHT22;4484;48.928;10.066;2023-02-28T00:50:05;-3.70;99.90
8896;DHT22;4484;48.928;10.066;2023-02-28T00:52:32;-3.70;99.90
8896;DHT22;4484;48.928;10.066;2023-02-28T00:54:59;-3.70;99.90
8896;DHT22;4484;48.928;10.066;2023-02-28T00:57:26;-3.70;99.90
8896;DHT22;4484;48.928;10.066;2023-02-28T00:59:53;-3.70;99.90
8896;DHT22;4484;48.928;10.066;2023-02-28T01:02:22;-3.70;99.90
8896;DHT22;4484;48.928;10.066;2023-02-28T01:04:52;-3.70;99.90
8896;DHT22;4484;48.928;10.066;2023-02-28T01:07:19;-3.70;99.90
8896;DHT22;4484;48.928;10.066;2023-02-28T01:09:46;-3.70;99.90
8896;DHT22;4484;48.928;10.066;2023-02-28T01:12:12;-3.70;99.90
8896;DHT22;4484;48.928;10.066;2023-02-28T01:14:39;-3.70;99.90
8896;DHT22;4484;48.928;10.066;2023-02-28T01:17:06;-3.70;99.90
8896;DHT22;4484;48.928;10.066;2023-02-28T01:19:34;-3.70;99.90
8896;DHT22;4484;48.928;10.066;2023-02-28T01:22:03;-3.70;99.90
8896;DHT22;4484;48.928;10.066;2023-02-28T01:24:30;-3.70;99.90
8896;DHT22;4484;48.928;10.066;2023-02-28T01:26:59;-3.70;99.90
8896;DHT22;4484;48.928;10.066;2023-02-28T01:29:26;-3.70;99.90
8896;DHT22;4484;48.928;10.066;2023-02-28T01:31:53;-3.70;99.90
8896;DHT22;4484;48.928;10.066;2023-02-28T01:34:20;-3.70;99.90
8896;DHT22;4484;48.928;10.066;2023-02-28T01:36:47;-3.70;99.90
8896;DHT22;4484;48.928;10.066;2023-02-28T01:39:14;-3.70;99.90
8896;DHT22;4484;48.928;10.066;2023-02-28T01:41:41;-3.70;99.90
8896;DHT22;4484;48.928;10.066;2023-02-28T01:47:14;-3.70;99.90
8896;DHT22;4484;48.928;10.066;2023-02-28T01:49:42;-3.70;99.90
8896;DHT22;4484;48.928;10.066;2023-02-28T01:52:11;-3.70;99.90
8896;DHT22;4484;48.928;10.066;2023-02-28T01:54:53;-3.70;99.90
8896;DHT22;4484;48.928;10.066;2023-02-28T01:57:25;-3.70;99.90
8896;DHT22;4484;48.928;10.066;2023-02-28T01:59:57;-3.70;99.90
8896;DHT22;4484;48.928;10.066;2023-02-28T02:02:26;-3.70;99.90
8896;DHT22;4484;48.928;10.066;2023-02-28T02:05:01;-3.70;99.90
8896;DHT22;4484;48.928;10.066;2023-02-28T02:07:37;-3.70;99.90
8896;DHT22;4484;48.928;10.066;2023-02-28T02:10:16;-3.80;99.90
8896;DHT22;4484;48.928;10.066;2023-02-28T02:15:45;-3.80;99.90
8896;DHT22;4484;48.928;10.066;2023-02-28T02:18:39;-3.80;99.90
8896;DHT22;4484;48.928;10.066;2023-02-28T02:35:52;-3.80;99.90
8896;DHT22;4484;48.928;10.066;2023-02-28T02:41:14;-3.80;99.90
8896;DHT22;4484;48.928;10.066;2023-02-28T02:43:51;-3.80;99.90
8896;DHT22;4484;48.928;10.066;2023-02-28T02:46:24;-3.80;99.90
8896;DHT22;4484;48.928;10.066;2023-02-28T02:48:56;-3.70;99.90
8896;DHT22;4484;48.928;10.066;2023-02-28T02:51:24;-3.70;99.90
8896;DHT22;4484;48.928;10.066;2023-02-28T02:53:57;-3.70;99.90
8896;DHT22;4484;48.928;10.066;2023-02-28T02:56:28;-3.70;99.90
8896;DHT22;4484;48.928;10.066;2023-02-28T02:59:01;-3.70;99.90
8896;DHT22;4484;48.928;10.066;2023-02-28T03:01:31;-3.60;99.90
8896;DHT22;4484;48.928;10.066;2023-02-28T03:04:05;-3.60;99.90
8896;DHT22;4484;48.928;10.066;2023-02-28T03:06:33;-3.60;99.90
8896;DHT22;4484;48.928;10.066;2023-02-28T03:09:02;-3.60;99.90
8896;DHT22;4484;48.928;10.066;2023-02-28T03:11:31;-3.60;99.90
8896;DHT22;4484;48.928;10.066;2023-02-28T03:14:10;-3.60;99.90
8896;DHT22;4484;48.928;10.066;2023-02-28T03:17:08;-3.60;99.90
8896;DHT22;4484;48.928;10.066;2023-02-28T03:19:48;-3.50;99.90
8896;DHT22;4484;48.928;10.066;2023-02-28T03:30:45;-3.50;99.90
8896;DHT22;4484;48.928;10.066;2023-02-28T03:35:55;-3.50;99.90
8896;DHT22;4484;48.928;10.066;2023-02-28T03:38:40;-3.50;99.90
8896;DHT22;4484;48.928;10.066;2023-02-28T03:41:23;-3.50;99.90
8896;DHT22;4484;48.928;10.066;2023-02-28T03:43:59;-3.50;99.90
8896;DHT22;4484;48.928;10.066;2023-02-28T03:46:32;-3.50;99.90
8896;DHT22;4484;48.928;10.066;2023-02-28T03:49:11;-3.50;99.90
8896;DHT22;4484;48.928;10.066;2023-02-28T03:51:42;-3.50;99.90
8896;DHT22;4484;48.928;10.066;2023-02-28T03:54:13;-3.50;99.90
8896;DHT22;4484;48.928;10.066;2023-02-28T03:56:55;-3.50;99.90
8896;DHT22;4484;48.928;10.066;2023-02-28T03:59:35;-3.50;99.90
8896;DHT22;4484;48.928;10.066;2023-02-28T04:02:03;-3.50;99.90
8896;DHT22;4484;48.928;10.066;2023-02-28T04:04:30;-3.50;99.90
8896;DHT22;4484;48.928;10.066;2023-02-28T04:07:06;-3.50;99.90
8896;DHT22;4484;48.928;10.066;2023-02-28T04:09:34;-3.50;99.90
8896;DHT22;4484;48.928;10.066;2023-02-28T04:12:01;-3.50;99.90
8896;DHT22;4484;48.928;10.066;2023-02-28T04:14:28;-3.50;99.90
8896;DHT22;4484;48.928;10.066;2023-02-28T04:16:55;-3.40;99.90
8896;DHT22;4484;48.928;10.066;2023-02-28T04:19:22;-3.50;99.90
8896;DHT22;4484;48.928;10.066;2023-02-28T04:21:51;-3.50;99.90
8896;DHT22;4484;48.928;10.066;2023-02-28T04:24:23;-3.50;99.90
8896;DHT22;4484;48.928;10.066;2023-02-28T04:26:52;-3.50;99.90
8896;DHT22;4484;48.928;10.066;2023-02-28T04:29:22;-3.50;99.90
8896;DHT22;4484;48.928;10.066;2023-02-28T04:31:50;-3.50;99.90
8896;DHT22;4484;48.928;10.066;2023-02-28T04:34:17;-3.50;99.90
8896;DHT22;4484;48.928;10.066;2023-02-28T04:36:45;-3.40;99.90
8896;DHT22;4484;48.928;10.066;2023-02-28T04:39:12;-3.40;99.90
8896;DHT22;4484;48.928;10.066;2023-02-28T04:41:40;-3.40;99.90
8896;DHT22;4484;48.928;10.066;2023-02-28T04:44:06;-3.40;99.90
8896;DHT22;4484;48.928;10.066;2023-02-28T04:46:33;-3.40;99.90
8896;DHT22;4484;48.928;10.066;2023-02-28T04:49:00;-3.40;99.90
8896;DHT22;4484;48.928;10.066;2023-02-28T04:51:27;-3.40;99.90
8896;DHT22;4484;48.928;10.066;2023-02-28T04:53:55;-3.40;99.90
8896;DHT22;4484;48.928;10.066;2023-02-28T04:56:22;-3.50;99.90
8896;DHT22;4484;48.928;10.066;2023-02-28T04:58:49;-3.40;99.90
8896;DHT22;4484;48.928;10.066;2023-02-28T05:03:45;-3.50;99.90
8896;DHT22;4484;48.928;10.066;2023-02-28T05:06:13;-3.50;99.90
8896;DHT22;4484;48.928;10.066;2023-02-28T05:08:40;-3.50;99.90
8896;DHT22;4484;48.928;10.066;2023-02-28T05:11:14;-3.50;99.90
8896;DHT22;4484;48.928;10.066;2023-02-28T05:13:42;-3.50;99.90
8896;DHT22;4484;48.928;10.066;2023-02-28T05:16:09;-3.50;99.90
8896;DHT22;4484;48.928;10.066;2023-02-28T05:18:36;-3.50;99.90
8896;DHT22;4484;48.928;10.066;2023-02-28T05:21:03;-3.50;99.90
8896;DHT22;4484;48.928;10.066;2023-02-28T05:23:30;-3.50;99.90
8896;DHT22;4484;48.928;10.066;2023-02-28T05:25:57;-3.50;99.90
8896;DHT22;4484;48.928;10.066;2023-02-28T05:28:24;-3.50;99.90
8896;DHT22;4484;48.928;10.066;2023-02-28T05:30:51;-3.50;99.90
8896;DHT22;4484;48.928;10.066;2023-02-28T05:33:18;-3.50;99.90
8896;DHT22;4484;48.928;10.066;2023-02-28T05:35:45;-3.60;99.90
8896;DHT22;4484;48.928;10.066;2023-02-28T05:38:12;-3.60;99.90
8896;DHT22;4484;48.928;10.066;2023-02-28T05:40:39;-3.50;99.90
8896;DHT22;4484;48.928;10.066;2023-02-28T05:43:10;-3.50;99.90
8896;DHT22;4484;48.928;10.066;2023-02-28T05:45:37;-3.60;99.90
8896;DHT22;4484;48.928;10.066;2023-02-28T05:48:04;-3.60;99.90
8896;DHT22;4484;48.928;10.066;2023-02-28T05:50:31;-3.60;99.90
8896;DHT22;4484;48.928;10.066;2023-02-28T05:52:58;-3.60;99.90
8896;DHT22;4484;48.928;10.066;2023-02-28T05:55:25;-3.60;99.90
8896;DHT22;4484;48.928;10.066;2023-02-28T05:57:52;-3.60;99.90
8896;DHT22;4484;48.928;10.066;2023-02-28T06:00:19;-3.60;99.90
8896;DHT22;4484;48.928;10.066;2023-02-28T06:02:46;-3.70;99.90
8896;DHT22;4484;48.928;10.066;2023-02-28T06:05:15;-3.70;99.90
8896;DHT22;4484;48.928;10.066;2023-02-28T06:07:43;-3.70;99.90
8896;DHT22;4484;48.928;10.066;2023-02-28T06:10:11;-3.70;99.90
8896;DHT22;4484;48.928;10.066;2023-02-28T06:12:38;-3.70;99.90
8896;DHT22;4484;48.928;10.066;2023-02-28T06:15:05;-3.70;99.90
8896;DHT22;4484;48.928;10.066;2023-02-28T06:17:32;-3.70;99.90
8896;DHT22;4484;48.928;10.066;2023-02-28T06:19:59;-3.70;99.90
8896;DHT22;4484;48.928;10.066;2023-02-28T06:22:26;-3.80;99.90
8896;DHT22;4484;48.928;10.066;2023-02-28T06:24:53;-3.80;99.90
8896;DHT22;4484;48.928;10.066;2023-02-28T06:27:21;-3.80;99.90
8896;DHT22;4484;48.928;10.066;2023-02-28T06:29:48;-3.80;99.90
8896;DHT22;4484;48.928;10.066;2023-02-28T06:32:15;-3.80;99.90
8896;DHT22;4484;48.928;10.066;2023-02-28T06:34:42;-3.80;99.90
8896;DHT22;4484;48.928;10.066;2023-02-28T06:37:09;-3.80;99.90
8896;DHT22;4484;48.928;10.066;2023-02-28T06:39:36;-3.80;99.90
8896;DHT22;4484;48.928;10.066;2023-02-28T06:42:03;-3.80;99.90
8896;DHT22;4484;48.928;10.066;2023-02-28T06:44:30;-3.80;99.90
8896;DHT22;4484;48.928;10.066;2023-02-28T06:47:04;-3.80;99.90
8896;DHT22;4484;48.928;10.066;2023-02-28T06:49:33;-3.80;99.90
8896;DHT22;4484;48.928;10.066;2023-02-28T06:52:01;-3.70;99.90
8896;DHT22;4484;48.928;10.066;2023-02-28T06:54:28;-3.70;99.90
8896;DHT22;4484;48.928;10.066;2023-02-28T06:56:55;-3.70;99.90
8896;DHT22;4484;48.928;10.066;2023-02-28T06:59:21;-3.60;99.90
8896;DHT22;4484;48.928;10.066;2023-02-28T07:01:48;-3.60;99.90
8896;DHT22;4484;48.928;10.066;2023-02-28T07:04:15;-3.50;99.90
8896;DHT22;4484;48.928;10.066;2023-02-28T07:06:42;-3.50;99.90
8896;DHT22;4484;48.928;10.066;2023-02-28T07:09:09;-3.50;99.90
8896;DHT22;4484;48.928;10.066;2023-02-28T07:11:37;-3.50;99.90
8896;DHT22;4484;48.928;10.066;2023-02-28T07:14:04;-3.40;99.90
8896;DHT22;4484;48.928;10.066;2023-02-28T07:16:31;-3.40;99.90
8896;DHT22;4484;48.928;10.066;2023-02-28T07:18:58;-3.40;99.90
8896;DHT22;4484;48.928;10.066;2023-02-28T07:21:25;-3.30;99.90
8896;DHT22;4484;48.928;10.066;2023-02-28T07:23:52;-3.30;99.90
8896;DHT22;4484;48.928;10.066;2023-02-28T07:26:20;-3.20;99.90
8896;DHT22;4484;48.928;10.066;2023-02-28T07:28:48;-3.10;99.90
8896;DHT22;4484;48.928;10.066;2023-02-28T07:31:17;-3.10;99.90
8896;DHT22;4484;48.928;10.066;2023-02-28T07:33:45;-3.10;99.90
8896;DHT22;4484;48.928;10.066;2023-02-28T07:36:14;-3.00;99.90
8896;DHT22;4484;48.928;10.066;2023-02-28T07:38:46;-2.90;99.90
8896;DHT22;4484;48.928;10.066;2023-02-28T07:41:19;-2.80;99.90
8896;DHT22;4484;48.928;10.066;2023-02-28T07:43:47;-2.80;99.90
8896;DHT22;4484;48.928;10.066;2023-02-28T07:46:16;-2.70;99.90
8896;DHT22;4484;48.928;10.066;2023-02-28T07:48:44;-2.70;99.90
8896;DHT22;4484;48.928;10.066;2023-02-28T07:51:11;-2.60;99.90
8896;DHT22;4484;48.928;10.066;2023-02-28T07:53:38;-2.50;99.90
8896;DHT22;4484;48.928;10.066;2023-02-28T07:56:05;-2.40;99.90
8896;DHT22;4484;48.928;10.066;2023-02-28T07:58:32;-2.30;99.90
8896;DHT22;4484;48.928;10.066;2023-02-28T08:01:07;-2.20;99.90
8896;DHT22;4484;48.928;10.066;2023-02-28T08:03:34;-2.00;99.90
8896;DHT22;4484;48.928;10.066;2023-02-28T08:06:03;-1.90;99.90
8896;DHT22;4484;48.928;10.066;2023-02-28T08:08:30;-1.70;99.90
8896;DHT22;4484;48.928;10.066;2023-02-28T08:11:02;-1.40;99.90
8896;DHT22;4484;48.928;10.066;2023-02-28T08:13:30;-1.10;99.90
8896;DHT22;4484;48.928;10.066;2023-02-28T08:15:57;-1.00;99.90
8896;DHT22;4484;48.928;10.066;2023-02-28T08:18:24;-0.70;99.90
8896;DHT22;4484;48.928;10.066;2023-02-28T08:20:51;-0.40;99.90
8896;DHT22;4484;48.928;10.066;2023-02-28T08:23:18;-0.30;99.90
8896;DHT22;4484;48.928;10.066;2023-02-28T08:25:55;-0.10;99.90
8896;DHT22;4484;48.928;10.066;2023-02-28T08:28:23;0.00;99.90
8896;DHT22;4484;48.928;10.066;2023-02-28T08:30:53;0.00;99.90
8896;DHT22;4484;48.928;10.066;2023-02-28T08:33:20;0.20;99.90
8896;DHT22;4484;48.928;10.066;2023-02-28T08:35:47;0.40;99.90
8896;DHT22;4484;48.928;10.066;2023-02-28T08:38:14;0.70;99.90
8896;DHT22;4484;48.928;10.066;2023-02-28T08:40:41;0.80;99.90
8896;DHT22;4484;48.928;10.066;2023-02-28T08:43:09;0.80;99.90
8896;DHT22;4484;48.928;10.066;2023-02-28T08:45:36;1.00;99.90
8896;DHT22;4484;48.928;10.066;2023-02-28T08:48:03;1.20;99.90
8896;DHT22;4484;48.928;10.066;2023-02-28T08:50:30;1.40;99.90
8896;DHT22;4484;48.928;10.066;2023-02-28T08:52:57;1.50;99.90
8896;DHT22;4484;48.928;10.066;2023-02-28T08:55:25;1.70;99.90
8896;DHT22;4484;48.928;10.066;2023-02-28T08:57:51;1.70;99.90
8896;DHT22;4484;48.928;10.066;2023-02-28T09:00:19;1.60;99.90
8896;DHT22;4484;48.928;10.066;2023-02-28T09:02:46;1.60;99.90
8896;DHT22;4484;48.928;10.066;2023-02-28T09:05:13;1.50;99.90
8896;DHT22;4484;48.928;10.066;2023-02-28T09:07:40;1.40;99.90
8896;DHT22;4484;48.928;10.066;2023-02-28T09:10:08;1.40;99.90
8896;DHT22;4484;48.928;10.066;2023-02-28T09:12:35;1.40;99.90
8896;DHT22;4484;48.928;10.066;2023-02-28T09:15:03;1.50;99.90
8896;DHT22;4484;48.928;10.066;2023-02-28T09:17:30;1.90;99.90
8896;DHT22;4484;48.928;10.066;2023-02-28T09:19:57;2.20;99.90
8896;DHT22;4484;48.928;10.066;2023-02-28T09:22:24;2.10;99.90
8896;DHT22;4484;48.928;10.066;2023-02-28T09:24:52;2.20;99.90
8896;DHT22;4484;48.928;10.066;2023-02-28T09:27:18;2.30;99.90
8896;DHT22;4484;48.928;10.066;2023-02-28T09:29:45;2.30;99.90
8896;DHT22;4484;48.928;10.066;2023-02-28T09:32:13;2.10;99.90
8896;DHT22;4484;48.928;10.066;2023-02-28T09:34:40;2.10;99.90
8896;DHT22;4484;48.928;10.066;2023-02-28T09:37:07;2.30;99.90
8896;DHT22;4484;48.928;10.066;2023-02-28T09:39:34;2.40;99.90
8896;DHT22;4484;48.928;10.066;2023-02-28T09:42:02;2.60;99.90
8896;DHT22;4484;48.928;10.066;2023-02-28T09:44:37;2.90;99.90
8896;DHT22;4484;48.928;10.066;2023-02-28T09:47:15;3.20;99.90
8896;DHT22;4484;48.928;10.066;2023-02-28T09:49:46;3.20;99.90
8896;DHT22;4484;48.928;10.066;2023-02-28T09:52:25;3.30;99.90
8896;DHT22;4484;48.928;10.066;2023-02-28T09:54:54;3.30;99.90
8896;DHT22;4484;48.928;10.066;2023-02-28T09:57:36;3.30;99.90
8896;DHT22;4484;48.928;10.066;2023-02-28T10:03:11;3.10;99.90
8896;DHT22;4484;48.928;10.066;2023-02-28T10:05:57;3.10;99.90
8896;DHT22;4484;48.928;10.066;2023-02-28T10:08:40;3.10;99.90
8896;DHT22;4484;48.928;10.066;2023-02-28T10:11:15;3.10;99.90
8896;DHT22;4484;48.928;10.066;2023-02-28T10:16:31;3.30;99.90
8896;DHT22;4484;48.928;10.066;2023-02-28T10:21:57;3.70;99.90
8896;DHT22;4484;48.928;10.066;2023-02-28T10:24:48;3.80;99.90
8896;DHT22;4484;48.928;10.066;2023-02-28T10:27:16;4.60;99.90
8896;DHT22;4484;48.928;10.066;2023-02-28T10:29:50;4.90;99.90
8896;DHT22;4484;48.928;10.066;2023-02-28T10:32:20;4.90;99.60
8896;DHT22;4484;48.928;10.066;2023-02-28T10:35:10;4.80;99.10
8896;DHT22;4484;48.928;10.066;2023-02-28T10:37:42;4.80;98.60
8896;DHT22;4484;48.928;10.066;2023-02-28T10:40:32;4.30;98.20
8896;DHT22;4484;48.928;10.066;2023-02-28T10:43:02;4.50;99.00
8896;DHT22;4484;48.928;10.066;2023-02-28T10:45:31;4.50;99.00
8896;DHT22;4484;48.928;10.066;2023-02-28T10:48:02;4.90;98.60
8896;DHT22;4484;48.928;10.066;2023-02-28T10:50:42;5.20;99.10
8896;DHT22;4484;48.928;10.066;2023-02-28T10:56:01;6.80;97.30
8896;DHT22;4484;48.928;10.066;2023-02-28T10:58:47;6.60;93.30
8896;DHT22;4484;48.928;10.066;2023-02-28T11:04:02;6.20;95.70
8896;DHT22;4484;48.928;10.066;2023-02-28T11:06:34;6.30;94.50
8896;DHT22;4484;48.928;10.066;2023-02-28T11:09:05;6.50;96.30
8896;DHT22;4484;48.928;10.066;2023-02-28T11:11:43;6.90;94.30
8896;DHT22;4484;48.928;10.066;2023-02-28T11:16:47;6.60;92.80
8896;DHT22;4484;48.928;10.066;2023-02-28T11:19:24;6.90;94.00
8896;DHT22;4484;48.928;10.066;2023-02-28T11:21:59;7.10;91.80
8896;DHT22;4484;48.928;10.066;2023-02-28T11:24:35;7.00;91.30
8896;DHT22;4484;48.928;10.066;2023-02-28T11:27:02;7.20;92.80
8896;DHT22;4484;48.928;10.066;2023-02-28T11:29:32;7.60;91.20
8896;DHT22;4484;48.928;10.066;2023-02-28T11:32:07;7.50;89.20
8896;DHT22;4484;48.928;10.066;2023-02-28T11:34:39;7.40;89.00
8896;DHT22;4484;48.928;10.066;2023-02-28T11:37:18;7.50;89.20
8896;DHT22;4484;48.928;10.066;2023-02-28T11:39:45;7.40;90.40
8896;DHT22;4484;48.928;10.066;2023-02-28T11:42:36;7.50;90.30
8896;DHT22;4484;48.928;10.066;2023-02-28T11:48:04;7.50;91.00
8896;DHT22;4484;48.928;10.066;2023-02-28T11:56:43;7.90;83.70
8896;DHT22;4484;48.928;10.066;2023-02-28T11:59:22;8.10;90.00
8896;DHT22;4484;48.928;10.066;2023-02-28T12:02:35;8.00;85.20
8896;DHT22;4484;48.928;10.066;2023-02-28T12:07:47;7.90;86.70
8896;DHT22;4484;48.928;10.066;2023-02-28T12:10:25;8.10;86.60
8896;DHT22;4484;48.928;10.066;2023-02-28T12:13:24;8.20;85.40
8896;DHT22;4484;48.928;10.066;2023-02-28T12:16:16;7.60;82.60
8896;DHT22;4484;48.928;10.066;2023-02-28T12:19:01;7.90;90.60
8896;DHT22;4484;48.928;10.066;2023-02-28T12:27:03;8.10;85.60
8896;DHT22;4484;48.928;10.066;2023-02-28T12:30:05;8.60;84.80
8896;DHT22;4484;48.928;10.066;2023-02-28T12:32:41;8.50;80.40
8896;DHT22;4484;48.928;10.066;2023-02-28T12:37:46;7.80;81.50
8896;DHT22;4484;48.928;10.066;2023-02-28T12:40:20;7.90;84.60
8896;DHT22;4484;48.928;10.066;2023-02-28T12:43:00;8.00;81.10
8896;DHT22;4484;48.928;10.066;2023-02-28T12:45:57;7.80;81.20
8896;DHT22;4484;48.928;10.066;2023-02-28T12:48:42;7.70;81.20
8896;DHT22;4484;48.928;10.066;2023-02-28T12:51:10;8.00;88.00
8896;DHT22;4484;48.928;10.066;2023-02-28T12:54:02;8.30;83.60
8896;DHT22;4484;48.928;10.066;2023-02-28T13:01:42;8.30;86.30
8896;DHT22;4484;48.928;10.066;2023-02-28T13:09:38;8.30;79.10
8896;DHT22;4484;48.928;10.066;2023-02-28T13:12:13;8.20;81.90
8896;DHT22;4484;48.928;10.066;2023-02-28T13:14:41;8.70;82.50
8896;DHT22;4484;48.928;10.066;2023-02-28T13:19:37;9.40;82.50
8896;DHT22;4484;48.928;10.066;2023-02-28T13:22:36;9.40;83.80
8896;DHT22;4484;48.928;10.066;2023-02-28T13:27:55;9.60;87.90
8896;DHT22;4484;48.928;10.066;2023-02-28T13:33:31;10.10;80.60
8896;DHT22;4484;48.928;10.066;2023-02-28T13:38:41;10.30;76.50
8896;DHT22;4484;48.928;10.066;2023-02-28T13:46:33;10.30;79.10
8896;DHT22;4484;48.928;10.066;2023-02-28T13:54:53;9.10;74.90
8896;DHT22;4484;48.928;10.066;2023-02-28T14:09:01;9.00;79.00
8896;DHT22;4484;48.928;10.066;2023-02-28T14:11:36;9.00;79.50
8896;DHT22;4484;48.928;10.066;2023-02-28T14:14:05;9.00;82.80
8896;DHT22;4484;48.928;10.066;2023-02-28T14:16:39;8.60;80.60
8896;DHT22;4484;48.928;10.066;2023-02-28T14:19:14;8.30;80.10
8896;DHT22;4484;48.928;10.066;2023-02-28T14:22:09;8.40;82.60
8896;DHT22;4484;48.928;10.066;2023-02-28T14:36:12;8.20;80.90
8896;DHT22;4484;48.928;10.066;2023-02-28T14:38:50;7.80;80.10
8896;DHT22;4484;48.928;10.066;2023-02-28T14:41:31;7.80;82.90
8896;DHT22;4484;48.928;10.066;2023-02-28T14:44:12;7.80;82.80
8896;DHT22;4484;48.928;10.066;2023-02-28T14:46:41;7.90;86.30
8896;DHT22;4484;48.928;10.066;2023-02-28T14:49:30;7.90;82.00
8896;DHT22;4484;48.928;10.066;2023-02-28T14:52:14;8.00;85.30
8896;DHT22;4484;48.928;10.066;2023-02-28T14:54:43;7.70;82.10
8896;DHT22;4484;48.928;10.066;2023-02-28T14:57:32;7.50;85.20
8896;DHT22;4484;48.928;10.066;2023-02-28T15:02:51;7.30;84.50
8896;DHT22;4484;48.928;10.066;2023-02-28T15:05:31;7.20;87.50
8896;DHT22;4484;48.928;10.066;2023-02-28T15:08:24;7.10;85.70
8896;DHT22;4484;48.928;10.066;2023-02-28T15:10:56;6.80;84.30
8896;DHT22;4484;48.928;10.066;2023-02-28T15:16:39;6.10;85.00
8896;DHT22;4484;48.928;10.066;2023-02-28T15:19:33;6.00;87.90
8896;DHT22;4484;48.928;10.066;2023-02-28T15:22:04;5.90;87.50
8896;DHT22;4484;48.928;10.066;2023-02-28T15:27:07;5.70;90.20
8896;DHT22;4484;48.928;10.066;2023-02-28T15:29:50;5.60;88.70
8896;DHT22;4484;48.928;10.066;2023-02-28T15:32:33;5.40;88.70
8896;DHT22;4484;48.928;10.066;2023-02-28T15:35:27;5.10;89.60
8896;DHT22;4484;48.928;10.066;2023-02-28T15:40:32;5.00;90.80
8896;DHT22;4484;48.928;10.066;2023-02-28T15:43:13;5.00;90.40
8896;DHT22;4484;48.928;10.066;2023-02-28T15:45:49;4.90;90.40
8896;DHT22;4484;48.928;10.066;2023-02-28T15:48:20;4.70;90.10
8896;DHT22;4484;48.928;10.066;2023-02-28T15:51:16;4.50;90.70
8896;DHT22;4484;48.928;10.066;2023-02-28T15:56:28;4.30;91.00
8896;DHT22;4484;48.928;10.066;2023-02-28T15:58:57;4.20;91.40
8896;DHT22;4484;48.928;10.066;2023-02-28T16:01:27;4.00;91.90
8896;DHT22;4484;48.928;10.066;2023-02-28T16:03:59;3.80;92.10
8896;DHT22;4484;48.928;10.066;2023-02-28T16:08:59;3.50;92.80
8896;DHT22;4484;48.928;10.066;2023-02-28T16:11:26;3.50;93.00
8896;DHT22;4484;48.928;10.066;2023-02-28T16:13:54;3.30;94.00
8896;DHT22;4484;48.928;10.066;2023-02-28T16:16:24;3.30;94.00
8896;DHT22;4484;48.928;10.066;2023-02-28T16:18:51;3.10;94.70
8896;DHT22;4484;48.928;10.066;2023-02-28T16:21:18;3.00;95.40
8896;DHT22;4484;48.928;10.066;2023-02-28T16:23:45;2.90;95.30
8896;DHT22;4484;48.928;10.066;2023-02-28T16:26:20;2.80;96.20
8896;DHT22;4484;48.928;10.066;2023-02-28T16:28:47;2.70;97.00
8896;DHT22;4484;48.928;10.066;2023-02-28T16:31:14;2.60;97.30
8896;DHT22;4484;48.928;10.066;2023-02-28T16:33:44;2.50;97.80
8896;DHT22;4484;48.928;10.066;2023-02-28T16:36:20;2.40;98.40
8896;DHT22;4484;48.928;10.066;2023-02-28T16:38:47;2.40;99.00
8896;DHT22;4484;48.928;10.066;2023-02-28T16:41:20;2.30;99.10
8896;DHT22;4484;48.928;10.066;2023-02-28T16:43:49;2.20;99.50
8896;DHT22;4484;48.928;10.066;2023-02-28T16:46:17;2.10;99.70
8896;DHT22;4484;48.928;10.066;2023-02-28T16:48:44;2.10;99.90
8896;DHT22;4484;48.928;10.066;2023-02-28T16:51:13;2.00;99.90
8896;DHT22;4484;48.928;10.066;2023-02-28T16:53:41;1.90;99.90
8896;DHT22;4484;48.928;10.066;2023-02-28T16:56:18;1.90;99.90
8896;DHT22;4484;48.928;10.066;2023-02-28T16:58:46;1.80;99.90
8896;DHT22;4484;48.928;10.066;2023-02-28T17:01:14;1.70;99.90
8896;DHT22;4484;48.928;10.066;2023-02-28T17:03:41;1.70;99.90
8896;DHT22;4484;48.928;10.066;2023-02-28T17:06:21;1.60;99.90
8896;DHT22;4484;48.928;10.066;2023-02-28T17:08:50;1.50;99.90
8896;DHT22;4484;48.928;10.066;2023-02-28T17:11:18;1.40;99.90
8896;DHT22;4484;48.928;10.066;2023-02-28T17:13:44;1.40;99.90
8896;DHT22;4484;48.928;10.066;2023-02-28T17:16:30;1.30;99.90
8896;DHT22;4484;48.928;10.066;2023-02-28T17:19:01;1.20;99.90
8896;DHT22;4484;48.928;10.066;2023-02-28T17:21:28;1.10;99.90
8896;DHT22;4484;48.928;10.066;2023-02-28T17:23:55;1.10;99.90
8896;DHT22;4484;48.928;10.066;2023-02-28T17:26:23;1.00;99.90
8896;DHT22;4484;48.928;10.066;2023-02-28T17:28:52;0.90;99.90
8896;DHT22;4484;48.928;10.066;2023-02-28T17:31:22;0.90;99.90
8896;DHT22;4484;48.928;10.066;2023-02-28T17:33:49;0.80;99.90
8896;DHT22;4484;48.928;10.066;2023-02-28T17:36:22;0.70;99.90
8896;DHT22;4484;48.928;10.066;2023-02-28T17:38:49;0.70;99.90
8896;DHT22;4484;48.928;10.066;2023-02-28T17:41:16;0.60;99.90
8896;DHT22;4484;48.928;10.066;2023-02-28T17:43:43;0.50;99.90
8896;DHT22;4484;48.928;10.066;2023-02-28T17:46:16;0.40;99.90
8896;DHT22;4484;48.928;10.066;2023-02-28T17:48:44;0.40;99.90
8896;DHT22;4484;48.928;10.066;2023-02-28T17:51:15;0.30;99.90
8896;DHT22;4484;48.928;10.066;2023-02-28T17:53:43;0.30;99.90
8896;DHT22;4484;48.928;10.066;2023-02-28T17:56:21;0.20;99.90
8896;DHT22;4484;48.928;10.066;2023-02-28T17:58:52;0.10;99.90
8896;DHT22;4484;48.928;10.066;2023-02-28T18:01:19;0.10;99.90
8896;DHT22;4484;48.928;10.066;2023-02-28T18:03:47;0.00;99.90
8896;DHT22;4484;48.928;10.066;2023-02-28T18:06:23;-0.10;99.90
8896;DHT22;4484;48.928;10.066;2023-02-28T18:08:51;-0.10;99.90
8896;DHT22;4484;48.928;10.066;2023-02-28T18:11:19;-0.20;99.90
8896;DHT22;4484;48.928;10.066;2023-02-28T18:13:49;-0.20;99.90
8896;DHT22;4484;48.928;10.066;2023-02-28T18:16:18;-0.20;99.90
8896;DHT22;4484;48.928;10.066;2023-02-28T18:18:46;-0.30;99.90
8896;DHT22;4484;48.928;10.066;2023-02-28T18:21:14;-0.30;99.90
8896;DHT22;4484;48.928;10.066;2023-02-28T18:23:42;-0.40;99.90
8896;DHT22;4484;48.928;10.066;2023-02-28T18:26:18;-0.40;99.90
8896;DHT22;4484;48.928;10.066;2023-02-28T18:28:46;-0.50;99.90
8896;DHT22;4484;48.928;10.066;2023-02-28T18:31:18;-0.50;99.90
8896;DHT22;4484;48.928;10.066;2023-02-28T18:33:50;-0.60;99.90
8896;DHT22;4484;48.928;10.066;2023-02-28T18:36:19;-0.60;99.90
8896;DHT22;4484;48.928;10.066;2023-02-28T18:38:47;-0.60;99.90
8896;DHT22;4484;48.928;10.066;2023-02-28T18:41:17;-0.70;99.90
8896;DHT22;4484;48.928;10.066;2023-02-28T18:43:44;-0.70;99.90